sensor_id;sensor_type;location;lat;lon;timestamp;P1;durP1;ratioP1;P2;durP2;ratioP2
80569;SDS011;69923;50.828;4.400;2023-05-14T00:00:15;40.42;;;21.98;;
80569;SDS011;69923;50.828;4.400;2023-05-14T00:02:43;43.70;;;22.27;;
80569;SDS011;69923;50.828;4.400;2023-05-14T00:05:09;45.05;;;23.08;;
80569;SDS011;69923;50.828;4.400;2023-05-14T00:07:35;44.33;;;21.60;;
80569;SDS011;69923;50.828;4.400;2023-05-14T00:10:02;46.05;;;22.58;;
80569;SDS011;69923;50.828;4.400;2023-05-14T00:12:28;45.53;;;23.23;;
80569;SDS011;69923;50.828;4.400;2023-05-14T00:14:55;44.42;;;22.65;;
80569;SDS011;69923;50.828;4.400;2023-05-14T00:17:21;44.78;;;23.92;;
80569;SDS011;69923;50.828;4.400;2023-05-14T00:19:48;50.65;;;23.98;;
80569;SDS011;69923;50.828;4.400;2023-05-14T00:22:14;43.08;;;22.63;;
80569;SDS011;69923;50.828;4.400;2023-05-14T00:24:40;48.15;;;22.77;;
80569;SDS011;69923;50.828;4.400;2023-05-14T00:27:06;46.97;;;23.52;;
80569;SDS011;69923;50.828;4.400;2023-05-14T00:29:33;43.10;;;22.77;;
80569;SDS011;69923;50.828;4.400;2023-05-14T00:32:00;47.38;;;24.02;;
80569;SDS011;69923;50.828;4.400;2023-05-14T00:34:26;46.38;;;24.13;;
80569;SDS011;69923;50.828;4.400;2023-05-14T00:36:53;47.42;;;24.05;;
80569;SDS011;69923;50.828;4.400;2023-05-14T00:39:19;43.22;;;23.00;;
80569;SDS011;69923;50.828;4.400;2023-05-14T00:41:45;46.30;;;24.02;;
80569;SDS011;69923;50.828;4.400;2023-05-14T00:44:11;50.95;;;27.60;;
80569;SDS011;69923;50.828;4.400;2023-05-14T00:46:38;45.72;;;24.13;;
80569;SDS011;69923;50.828;4.400;2023-05-14T00:49:04;45.63;;;24.13;;
80569;SDS011;69923;50.828;4.400;2023-05-14T00:51:30;50.42;;;24.25;;
80569;SDS011;69923;50.828;4.400;2023-05-14T00:53:58;47.05;;;24.35;;
80569;SDS011;69923;50.828;4.400;2023-05-14T00:56:24;47.40;;;25.60;;
80569;SDS011;69923;50.828;4.400;2023-05-14T00:58:51;52.67;;;26.52;;
80569;SDS011;69923;50.828;4.400;2023-05-14T01:01:18;48.33;;;25.60;;
80569;SDS011;69923;50.828;4.400;2023-05-14T01:03:44;51.72;;;25.08;;
80569;SDS011;69923;50.828;4.400;2023-05-14T01:06:14;49.75;;;24.33;;
80569;SDS011;69923;50.828;4.400;2023-05-14T01:17:24;49.55;;;23.25;;
80569;SDS011;69923;50.828;4.400;2023-05-14T01:19:53;49.45;;;24.95;;
80569;SDS011;69923;50.828;4.400;2023-05-14T01:22:20;52.75;;;25.13;;
80569;SDS011;69923;50.828;4.400;2023-05-14T01:24:46;55.22;;;26.00;;
80569;SDS011;69923;50.828;4.400;2023-05-14T01:32:42;59.03;;;28.23;;
80569;SDS011;69923;50.828;4.400;2023-05-14T01:35:12;51.15;;;24.67;;
80569;SDS011;69923;50.828;4.400;2023-05-14T01:37:39;53.17;;;24.73;;
80569;SDS011;69923;50.828;4.400;2023-05-14T01:40:08;50.53;;;24.42;;
80569;SDS011;69923;50.828;4.400;2023-05-14T01:42:36;48.65;;;23.75;;
80569;SDS011;69923;50.828;4.400;2023-05-14T01:45:03;52.95;;;24.38;;
80569;SDS011;69923;50.828;4.400;2023-05-14T01:47:29;53.72;;;25.08;;
80569;SDS011;69923;50.828;4.400;2023-05-14T01:49:55;52.88;;;26.77;;
80569;SDS011;69923;50.828;4.400;2023-05-14T01:52:22;60.33;;;25.45;;
80569;SDS011;69923;50.828;4.400;2023-05-14T01:54:48;50.70;;;25.48;;
80569;SDS011;69923;50.828;4.400;2023-05-14T01:57:14;55.00;;;24.98;;
80569;SDS011;69923;50.828;4.400;2023-05-14T01:59:40;59.17;;;25.85;;
80569;SDS011;69923;50.828;4.400;2023-05-14T02:02:06;51.25;;;25.23;;
80569;SDS011;69923;50.828;4.400;2023-05-14T02:04:32;52.50;;;25.65;;
80569;SDS011;69923;50.828;4.400;2023-05-14T02:06:59;58.38;;;26.30;;
80569;SDS011;69923;50.828;4.400;2023-05-14T02:09:25;50.55;;;25.80;;
80569;SDS011;69923;50.828;4.400;2023-05-14T02:11:51;58.22;;;26.17;;
80569;SDS011;69923;50.828;4.400;2023-05-14T02:14:17;54.95;;;25.80;;
80569;SDS011;69923;50.828;4.400;2023-05-14T02:16:43;56.58;;;26.73;;
80569;SDS011;69923;50.828;4.400;2023-05-14T02:19:09;52.63;;;24.75;;
80569;SDS011;69923;50.828;4.400;2023-05-14T02:21:35;60.00;;;25.42;;
80569;SDS011;69923;50.828;4.400;2023-05-14T02:24:02;57.17;;;26.98;;
80569;SDS011;69923;50.828;4.400;2023-05-14T02:26:28;56.25;;;26.50;;
80569;SDS011;69923;50.828;4.400;2023-05-14T02:28:54;51.50;;;25.33;;
80569;SDS011;69923;50.828;4.400;2023-05-14T02:31:20;51.83;;;25.60;;
80569;SDS011;69923;50.828;4.400;2023-05-14T02:33:46;59.13;;;26.38;;
80569;SDS011;69923;50.828;4.400;2023-05-14T02:36:12;52.72;;;24.27;;
80569;SDS011;69923;50.828;4.400;2023-05-14T02:38:39;58.63;;;25.67;;
80569;SDS011;69923;50.828;4.400;2023-05-14T02:41:05;53.45;;;25.20;;
80569;SDS011;69923;50.828;4.400;2023-05-14T02:43:31;51.03;;;24.85;;
80569;SDS011;69923;50.828;4.400;2023-05-14T02:45:58;51.35;;;23.50;;
80569;SDS011;69923;50.828;4.400;2023-05-14T02:48:24;51.92;;;24.38;;
80569;SDS011;69923;50.828;4.400;2023-05-14T02:50:50;56.22;;;24.15;;
80569;SDS011;69923;50.828;4.400;2023-05-14T02:53:17;54.08;;;24.85;;
80569;SDS011;69923;50.828;4.400;2023-05-14T02:55:43;53.63;;;24.25;;
80569;SDS011;69923;50.828;4.400;2023-05-14T02:58:09;53.33;;;26.80;;
80569;SDS011;69923;50.828;4.400;2023-05-14T03:00:36;48.50;;;26.25;;
80569;SDS011;69923;50.828;4.400;2023-05-14T03:03:03;53.28;;;25.35;;
80569;SDS011;69923;50.828;4.400;2023-05-14T03:05:29;50.03;;;23.33;;
80569;SDS011;69923;50.828;4.400;2023-05-14T03:07:55;55.10;;;24.17;;
80569;SDS011;69923;50.828;4.400;2023-05-14T03:10:22;55.03;;;23.67;;
80569;SDS011;69923;50.828;4.400;2023-05-14T03:12:48;50.78;;;26.02;;
80569;SDS011;69923;50.828;4.400;2023-05-14T03:15:15;52.63;;;24.73;;
80569;SDS011;69923;50.828;4.400;2023-05-14T03:17:42;48.30;;;24.10;;
80569;SDS011;69923;50.828;4.400;2023-05-14T03:20:08;54.97;;;26.00;;
80569;SDS011;69923;50.828;4.400;2023-05-14T03:22:35;53.60;;;25.67;;
80569;SDS011;69923;50.828;4.400;2023-05-14T03:25:01;57.83;;;26.33;;
80569;SDS011;69923;50.828;4.400;2023-05-14T03:27:27;50.25;;;25.65;;
80569;SDS011;69923;50.828;4.400;2023-05-14T03:29:54;55.33;;;26.15;;
80569;SDS011;69923;50.828;4.400;2023-05-14T03:32:20;50.83;;;24.50;;
80569;SDS011;69923;50.828;4.400;2023-05-14T03:34:46;52.63;;;24.20;;
80569;SDS011;69923;50.828;4.400;2023-05-14T03:37:12;56.15;;;25.17;;
80569;SDS011;69923;50.828;4.400;2023-05-14T03:39:39;51.42;;;25.15;;
80569;SDS011;69923;50.828;4.400;2023-05-14T03:42:05;56.40;;;23.48;;
80569;SDS011;69923;50.828;4.400;2023-05-14T03:44:31;49.53;;;25.23;;
80569;SDS011;69923;50.828;4.400;2023-05-14T03:46:57;56.67;;;25.05;;
80569;SDS011;69923;50.828;4.400;2023-05-14T03:49:24;56.40;;;25.10;;
80569;SDS011;69923;50.828;4.400;2023-05-14T03:51:50;52.65;;;23.67;;
80569;SDS011;69923;50.828;4.400;2023-05-14T03:54:16;61.13;;;26.40;;
80569;SDS011;69923;50.828;4.400;2023-05-14T03:56:42;55.00;;;24.88;;
80569;SDS011;69923;50.828;4.400;2023-05-14T03:59:09;51.58;;;25.05;;
80569;SDS011;69923;50.828;4.400;2023-05-14T04:01:36;52.13;;;24.52;;
80569;SDS011;69923;50.828;4.400;2023-05-14T04:04:02;57.47;;;26.20;;
80569;SDS011;69923;50.828;4.400;2023-05-14T04:06:28;57.63;;;25.65;;
80569;SDS011;69923;50.828;4.400;2023-05-14T04:08:55;48.22;;;23.02;;
80569;SDS011;69923;50.828;4.400;2023-05-14T04:11:22;49.55;;;23.27;;
80569;SDS011;69923;50.828;4.400;2023-05-14T04:13:48;56.25;;;24.98;;
80569;SDS011;69923;50.828;4.400;2023-05-14T04:16:14;60.80;;;25.60;;
80569;SDS011;69923;50.828;4.400;2023-05-14T04:18:40;57.15;;;24.63;;
80569;SDS011;69923;50.828;4.400;2023-05-14T04:21:06;57.88;;;24.58;;
80569;SDS011;69923;50.828;4.400;2023-05-14T04:23:33;56.58;;;25.45;;
80569;SDS011;69923;50.828;4.400;2023-05-14T04:25:59;52.70;;;23.67;;
80569;SDS011;69923;50.828;4.400;2023-05-14T04:28:25;56.97;;;27.05;;
80569;SDS011;69923;50.828;4.400;2023-05-14T04:30:51;48.30;;;22.70;;
80569;SDS011;69923;50.828;4.400;2023-05-14T04:33:17;49.08;;;23.88;;
80569;SDS011;69923;50.828;4.400;2023-05-14T04:35:44;55.95;;;24.58;;
80569;SDS011;69923;50.828;4.400;2023-05-14T04:38:10;51.85;;;24.30;;
80569;SDS011;69923;50.828;4.400;2023-05-14T04:40:38;52.53;;;24.83;;
80569;SDS011;69923;50.828;4.400;2023-05-14T04:43:05;53.17;;;24.25;;
80569;SDS011;69923;50.828;4.400;2023-05-14T04:45:32;53.47;;;23.38;;
80569;SDS011;69923;50.828;4.400;2023-05-14T04:47:58;49.60;;;23.52;;
80569;SDS011;69923;50.828;4.400;2023-05-14T04:50:24;48.25;;;23.77;;
80569;SDS011;69923;50.828;4.400;2023-05-14T04:52:51;49.33;;;23.55;;
80569;SDS011;69923;50.828;4.400;2023-05-14T04:55:17;49.38;;;22.55;;
80569;SDS011;69923;50.828;4.400;2023-05-14T04:57:43;54.08;;;23.08;;
80569;SDS011;69923;50.828;4.400;2023-05-14T05:00:09;49.45;;;22.73;;
80569;SDS011;69923;50.828;4.400;2023-05-14T05:02:37;49.33;;;21.75;;
80569;SDS011;69923;50.828;4.400;2023-05-14T05:05:03;50.50;;;23.75;;
80569;SDS011;69923;50.828;4.400;2023-05-14T05:07:29;50.85;;;23.48;;
80569;SDS011;69923;50.828;4.400;2023-05-14T05:09:56;53.95;;;23.17;;
80569;SDS011;69923;50.828;4.400;2023-05-14T05:12:22;47.75;;;22.52;;
80569;SDS011;69923;50.828;4.400;2023-05-14T05:14:48;50.50;;;23.00;;
80569;SDS011;69923;50.828;4.400;2023-05-14T05:17:14;53.28;;;24.60;;
80569;SDS011;69923;50.828;4.400;2023-05-14T05:19:40;46.38;;;20.92;;
80569;SDS011;69923;50.828;4.400;2023-05-14T05:22:07;52.38;;;22.60;;
80569;SDS011;69923;50.828;4.400;2023-05-14T05:24:33;53.30;;;24.23;;
80569;SDS011;69923;50.828;4.400;2023-05-14T05:26:59;44.33;;;23.63;;
80569;SDS011;69923;50.828;4.400;2023-05-14T05:29:25;52.78;;;22.35;;
80569;SDS011;69923;50.828;4.400;2023-05-14T05:31:51;45.50;;;22.42;;
80569;SDS011;69923;50.828;4.400;2023-05-14T05:34:18;49.10;;;24.35;;
80569;SDS011;69923;50.828;4.400;2023-05-14T05:36:44;45.38;;;21.20;;
80569;SDS011;69923;50.828;4.400;2023-05-14T05:39:11;46.75;;;21.48;;
80569;SDS011;69923;50.828;4.400;2023-05-14T05:41:37;42.92;;;20.88;;
80569;SDS011;69923;50.828;4.400;2023-05-14T05:44:04;42.63;;;20.77;;
80569;SDS011;69923;50.828;4.400;2023-05-14T05:46:30;50.45;;;22.40;;
80569;SDS011;69923;50.828;4.400;2023-05-14T05:48:57;45.00;;;22.25;;
80569;SDS011;69923;50.828;4.400;2023-05-14T05:51:23;50.92;;;23.35;;
80569;SDS011;69923;50.828;4.400;2023-05-14T05:53:50;46.67;;;23.08;;
80569;SDS011;69923;50.828;4.400;2023-05-14T05:56:16;47.80;;;22.13;;
80569;SDS011;69923;50.828;4.400;2023-05-14T05:58:42;50.42;;;23.70;;
80569;SDS011;69923;50.828;4.400;2023-05-14T06:01:09;48.15;;;22.10;;
80569;SDS011;69923;50.828;4.400;2023-05-14T06:03:35;44.58;;;21.77;;
80569;SDS011;69923;50.828;4.400;2023-05-14T06:06:01;54.83;;;24.45;;
80569;SDS011;69923;50.828;4.400;2023-05-14T06:08:27;49.13;;;22.92;;
80569;SDS011;69923;50.828;4.400;2023-05-14T06:10:54;47.63;;;22.70;;
80569;SDS011;69923;50.828;4.400;2023-05-14T06:13:20;50.03;;;22.02;;
80569;SDS011;69923;50.828;4.400;2023-05-14T06:15:46;46.95;;;21.05;;
80569;SDS011;69923;50.828;4.400;2023-05-14T06:18:12;44.20;;;21.63;;
80569;SDS011;69923;50.828;4.400;2023-05-14T06:20:38;46.20;;;21.42;;
80569;SDS011;69923;50.828;4.400;2023-05-14T06:23:05;47.58;;;19.77;;
80569;SDS011;69923;50.828;4.400;2023-05-14T06:25:32;46.42;;;20.63;;
80569;SDS011;69923;50.828;4.400;2023-05-14T06:27:58;42.67;;;20.15;;
80569;SDS011;69923;50.828;4.400;2023-05-14T06:30:25;45.05;;;21.25;;
80569;SDS011;69923;50.828;4.400;2023-05-14T06:32:51;44.30;;;20.80;;
80569;SDS011;69923;50.828;4.400;2023-05-14T06:35:19;41.10;;;18.85;;
80569;SDS011;69923;50.828;4.400;2023-05-14T06:37:50;43.35;;;20.90;;
80569;SDS011;69923;50.828;4.400;2023-05-14T06:40:17;41.58;;;20.17;;
80569;SDS011;69923;50.828;4.400;2023-05-14T06:42:43;38.13;;;21.33;;
80569;SDS011;69923;50.828;4.400;2023-05-14T06:45:09;43.28;;;20.80;;
80569;SDS011;69923;50.828;4.400;2023-05-14T06:47:36;42.47;;;20.20;;
80569;SDS011;69923;50.828;4.400;2023-05-14T06:50:02;38.10;;;17.58;;
80569;SDS011;69923;50.828;4.400;2023-05-14T06:52:28;42.90;;;21.00;;
80569;SDS011;69923;50.828;4.400;2023-05-14T06:54:55;44.22;;;19.73;;
80569;SDS011;69923;50.828;4.400;2023-05-14T06:57:21;39.38;;;19.10;;
80569;SDS011;69923;50.828;4.400;2023-05-14T06:59:47;43.90;;;20.27;;
80569;SDS011;69923;50.828;4.400;2023-05-14T07:02:13;44.03;;;20.17;;
80569;SDS011;69923;50.828;4.400;2023-05-14T07:04:39;47.05;;;20.17;;
80569;SDS011;69923;50.828;4.400;2023-05-14T07:07:05;46.53;;;21.70;;
80569;SDS011;69923;50.828;4.400;2023-05-14T07:09:32;37.40;;;18.92;;
80569;SDS011;69923;50.828;4.400;2023-05-14T07:11:58;43.60;;;20.50;;
80569;SDS011;69923;50.828;4.400;2023-05-14T07:14:24;46.28;;;20.83;;
80569;SDS011;69923;50.828;4.400;2023-05-14T07:16:50;40.70;;;18.70;;
80569;SDS011;69923;50.828;4.400;2023-05-14T07:19:16;35.47;;;17.75;;
80569;SDS011;69923;50.828;4.400;2023-05-14T07:21:44;37.20;;;18.90;;
80569;SDS011;69923;50.828;4.400;2023-05-14T07:24:10;41.80;;;19.55;;
80569;SDS011;69923;50.828;4.400;2023-05-14T07:26:36;39.92;;;20.30;;
80569;SDS011;69923;50.828;4.400;2023-05-14T07:29:03;37.35;;;18.27;;
80569;SDS011;69923;50.828;4.400;2023-05-14T07:31:29;39.20;;;18.73;;
80569;SDS011;69923;50.828;4.400;2023-05-14T07:33:55;38.45;;;17.92;;
80569;SDS011;69923;50.828;4.400;2023-05-14T07:36:21;38.72;;;18.45;;
80569;SDS011;69923;50.828;4.400;2023-05-14T07:38:48;39.20;;;19.60;;
80569;SDS011;69923;50.828;4.400;2023-05-14T07:41:14;38.17;;;19.00;;
80569;SDS011;69923;50.828;4.400;2023-05-14T07:43:40;41.25;;;20.15;;
80569;SDS011;69923;50.828;4.400;2023-05-14T07:46:06;39.42;;;18.77;;
80569;SDS011;69923;50.828;4.400;2023-05-14T07:48:32;44.08;;;20.08;;
80569;SDS011;69923;50.828;4.400;2023-05-14T07:50:59;37.90;;;18.20;;
80569;SDS011;69923;50.828;4.400;2023-05-14T07:53:25;40.65;;;20.55;;
80569;SDS011;69923;50.828;4.400;2023-05-14T07:55:51;39.45;;;19.38;;
80569;SDS011;69923;50.828;4.400;2023-05-14T07:58:18;37.10;;;18.33;;
80569;SDS011;69923;50.828;4.400;2023-05-14T08:00:45;36.83;;;18.20;;
80569;SDS011;69923;50.828;4.400;2023-05-14T08:03:11;37.10;;;19.85;;
80569;SDS011;69923;50.828;4.400;2023-05-14T08:05:38;33.80;;;16.90;;
80569;SDS011;69923;50.828;4.400;2023-05-14T08:08:04;40.47;;;20.52;;
80569;SDS011;69923;50.828;4.400;2023-05-14T08:10:30;38.45;;;17.60;;
80569;SDS011;69923;50.828;4.400;2023-05-14T08:12:56;39.72;;;19.58;;
80569;SDS011;69923;50.828;4.400;2023-05-14T08:15:23;37.33;;;19.00;;
80569;SDS011;69923;50.828;4.400;2023-05-14T08:17:49;37.22;;;19.08;;
80569;SDS011;69923;50.828;4.400;2023-05-14T08:20:15;37.20;;;18.27;;
80569;SDS011;69923;50.828;4.400;2023-05-14T08:22:41;34.00;;;17.60;;
80569;SDS011;69923;50.828;4.400;2023-05-14T08:25:08;35.95;;;18.80;;
80569;SDS011;69923;50.828;4.400;2023-05-14T08:27:34;33.30;;;17.08;;
80569;SDS011;69923;50.828;4.400;2023-05-14T08:30:00;35.17;;;17.50;;
80569;SDS011;69923;50.828;4.400;2023-05-14T08:32:27;35.00;;;18.88;;
80569;SDS011;69923;50.828;4.400;2023-05-14T08:34:53;33.08;;;18.48;;
80569;SDS011;69923;50.828;4.400;2023-05-14T08:37:19;35.25;;;18.17;;
80569;SDS011;69923;50.828;4.400;2023-05-14T08:39:45;39.08;;;19.52;;
80569;SDS011;69923;50.828;4.400;2023-05-14T08:42:12;33.08;;;18.33;;
80569;SDS011;69923;50.828;4.400;2023-05-14T08:44:49;35.35;;;17.55;;
80569;SDS011;69923;50.828;4.400;2023-05-14T08:47:24;36.03;;;17.92;;
80569;SDS011;69923;50.828;4.400;2023-05-14T08:49:51;34.08;;;16.02;;
80569;SDS011;69923;50.828;4.400;2023-05-14T08:52:26;31.10;;;16.92;;
80569;SDS011;69923;50.828;4.400;2023-05-14T08:54:52;31.38;;;17.30;;
80569;SDS011;69923;50.828;4.400;2023-05-14T08:57:19;37.13;;;16.40;;
80569;SDS011;69923;50.828;4.400;2023-05-14T08:59:50;34.85;;;17.48;;
80569;SDS011;69923;50.828;4.400;2023-05-14T09:02:16;28.13;;;15.27;;
80569;SDS011;69923;50.828;4.400;2023-05-14T09:04:48;28.33;;;13.73;;
80569;SDS011;69923;50.828;4.400;2023-05-14T09:07:19;26.58;;;14.05;;
80569;SDS011;69923;50.828;4.400;2023-05-14T09:09:46;32.00;;;15.32;;
80569;SDS011;69923;50.828;4.400;2023-05-14T09:12:13;28.50;;;14.55;;
80569;SDS011;69923;50.828;4.400;2023-05-14T09:14:39;25.45;;;14.85;;
80569;SDS011;69923;50.828;4.400;2023-05-14T09:17:05;26.33;;;14.38;;
80569;SDS011;69923;50.828;4.400;2023-05-14T09:19:32;25.85;;;16.08;;
80569;SDS011;69923;50.828;4.400;2023-05-14T09:21:59;26.90;;;15.45;;
80569;SDS011;69923;50.828;4.400;2023-05-14T09:24:25;26.45;;;14.80;;
80569;SDS011;69923;50.828;4.400;2023-05-14T09:26:55;23.13;;;14.73;;
80569;SDS011;69923;50.828;4.400;2023-05-14T09:29:25;27.83;;;15.55;;
80569;SDS011;69923;50.828;4.400;2023-05-14T09:31:53;25.88;;;14.15;;
80569;SDS011;69923;50.828;4.400;2023-05-14T09:36:56;22.60;;;14.20;;
80569;SDS011;69923;50.828;4.400;2023-05-14T09:39:27;28.48;;;16.73;;
80569;SDS011;69923;50.828;4.400;2023-05-14T09:41:54;26.08;;;17.02;;
80569;SDS011;69923;50.828;4.400;2023-05-14T09:44:21;21.33;;;14.20;;
80569;SDS011;69923;50.828;4.400;2023-05-14T09:46:48;24.13;;;15.55;;
80569;SDS011;69923;50.828;4.400;2023-05-14T09:49:15;20.15;;;14.52;;
80569;SDS011;69923;50.828;4.400;2023-05-14T09:51:41;26.52;;;15.73;;
80569;SDS011;69923;50.828;4.400;2023-05-14T09:54:08;26.27;;;16.00;;
80569;SDS011;69923;50.828;4.400;2023-05-14T09:56:34;22.80;;;15.57;;
80569;SDS011;69923;50.828;4.400;2023-05-14T09:59:02;22.00;;;16.73;;
80569;SDS011;69923;50.828;4.400;2023-05-14T10:01:29;24.70;;;15.30;;
80569;SDS011;69923;50.828;4.400;2023-05-14T10:03:56;22.38;;;15.52;;
80569;SDS011;69923;50.828;4.400;2023-05-14T10:06:31;22.10;;;15.25;;
80569;SDS011;69923;50.828;4.400;2023-05-14T10:09:02;21.92;;;13.38;;
80569;SDS011;69923;50.828;4.400;2023-05-14T10:11:36;20.27;;;14.90;;
80569;SDS011;69923;50.828;4.400;2023-05-14T10:16:36;19.58;;;14.63;;
80569;SDS011;69923;50.828;4.400;2023-05-14T10:19:11;20.27;;;14.90;;
80569;SDS011;69923;50.828;4.400;2023-05-14T10:21:39;22.20;;;15.73;;
80569;SDS011;69923;50.828;4.400;2023-05-14T10:24:07;21.55;;;14.80;;
80569;SDS011;69923;50.828;4.400;2023-05-14T10:26:35;18.05;;;13.60;;
80569;SDS011;69923;50.828;4.400;2023-05-14T10:29:05;19.67;;;13.90;;
80569;SDS011;69923;50.828;4.400;2023-05-14T10:34:38;19.50;;;15.10;;
80569;SDS011;69923;50.828;4.400;2023-05-14T10:37:10;21.90;;;15.18;;
80569;SDS011;69923;50.828;4.400;2023-05-14T10:39:51;18.48;;;14.05;;
80569;SDS011;69923;50.828;4.400;2023-05-14T10:42:26;15.63;;;13.63;;
80569;SDS011;69923;50.828;4.400;2023-05-14T10:45:00;17.08;;;14.10;;
80569;SDS011;69923;50.828;4.400;2023-05-14T10:47:35;15.23;;;12.55;;
80569;SDS011;69923;50.828;4.400;2023-05-14T10:50:07;17.23;;;13.95;;
80569;SDS011;69923;50.828;4.400;2023-05-14T10:52:36;19.15;;;15.75;;
80569;SDS011;69923;50.828;4.400;2023-05-14T10:55:05;16.15;;;13.75;;
80569;SDS011;69923;50.828;4.400;2023-05-14T10:57:33;18.67;;;13.95;;
80569;SDS011;69923;50.828;4.400;2023-05-14T11:00:01;18.95;;;12.90;;
80569;SDS011;69923;50.828;4.400;2023-05-14T11:02:31;19.42;;;13.98;;
80569;SDS011;69923;50.828;4.400;2023-05-14T11:04:59;17.25;;;14.48;;
80569;SDS011;69923;50.828;4.400;2023-05-14T11:07:40;15.82;;;13.65;;
80569;SDS011;69923;50.828;4.400;2023-05-14T11:12:40;15.43;;;12.68;;
80569;SDS011;69923;50.828;4.400;2023-05-14T11:15:08;18.65;;;13.35;;
80569;SDS011;69923;50.828;4.400;2023-05-14T11:17:36;15.48;;;12.25;;
80569;SDS011;69923;50.828;4.400;2023-05-14T11:20:04;14.98;;;12.43;;
80569;SDS011;69923;50.828;4.400;2023-05-14T11:22:32;14.80;;;11.20;;
80569;SDS011;69923;50.828;4.400;2023-05-14T11:24:59;14.95;;;11.60;;
80569;SDS011;69923;50.828;4.400;2023-05-14T11:27:25;16.50;;;12.05;;
80569;SDS011;69923;50.828;4.400;2023-05-14T11:29:52;16.35;;;11.70;;
80569;SDS011;69923;50.828;4.400;2023-05-14T11:32:20;15.88;;;12.15;;
80569;SDS011;69923;50.828;4.400;2023-05-14T11:34:46;15.60;;;11.88;;
80569;SDS011;69923;50.828;4.400;2023-05-14T11:37:13;14.65;;;10.85;;
80569;SDS011;69923;50.828;4.400;2023-05-14T11:39:47;18.27;;;12.18;;
80569;SDS011;69923;50.828;4.400;2023-05-14T11:42:14;16.73;;;11.75;;
80569;SDS011;69923;50.828;4.400;2023-05-14T11:44:44;15.07;;;11.88;;
80569;SDS011;69923;50.828;4.400;2023-05-14T11:47:11;17.27;;;11.57;;
80569;SDS011;69923;50.828;4.400;2023-05-14T11:49:37;14.25;;;12.52;;
80569;SDS011;69923;50.828;4.400;2023-05-14T11:52:04;15.82;;;10.38;;
80569;SDS011;69923;50.828;4.400;2023-05-14T11:54:33;15.13;;;11.27;;
80569;SDS011;69923;50.828;4.400;2023-05-14T11:57:01;16.23;;;12.07;;
80569;SDS011;69923;50.828;4.400;2023-05-14T11:59:31;16.15;;;13.13;;
80569;SDS011;69923;50.828;4.400;2023-05-14T12:01:58;20.23;;;14.63;;
80569;SDS011;69923;50.828;4.400;2023-05-14T12:04:24;15.50;;;11.85;;
80569;SDS011;69923;50.828;4.400;2023-05-14T12:06:51;16.48;;;11.55;;
80569;SDS011;69923;50.828;4.400;2023-05-14T12:09:18;17.75;;;13.05;;
80569;SDS011;69923;50.828;4.400;2023-05-14T12:11:45;16.92;;;12.85;;
80569;SDS011;69923;50.828;4.400;2023-05-14T12:14:16;19.20;;;12.68;;
80569;SDS011;69923;50.828;4.400;2023-05-14T12:16:43;14.55;;;11.63;;
80569;SDS011;69923;50.828;4.400;2023-05-14T12:19:12;14.80;;;11.73;;
80569;SDS011;69923;50.828;4.400;2023-05-14T12:21:41;33.22;;;26.33;;
80569;SDS011;69923;50.828;4.400;2023-05-14T12:24:09;16.10;;;12.27;;
80569;SDS011;69923;50.828;4.400;2023-05-14T12:26:44;15.95;;;11.35;;
80569;SDS011;69923;50.828;4.400;2023-05-14T12:29:15;13.93;;;10.80;;
80569;SDS011;69923;50.828;4.400;2023-05-14T12:31:48;15.95;;;11.93;;
80569;SDS011;69923;50.828;4.400;2023-05-14T12:34:15;16.90;;;11.63;;
80569;SDS011;69923;50.828;4.400;2023-05-14T12:36:42;15.18;;;11.32;;
80569;SDS011;69923;50.828;4.400;2023-05-14T12:39:08;18.08;;;12.57;;
80569;SDS011;69923;50.828;4.400;2023-05-14T12:41:36;15.15;;;12.00;;
80569;SDS011;69923;50.828;4.400;2023-05-14T12:44:03;19.60;;;12.20;;
80569;SDS011;69923;50.828;4.400;2023-05-14T12:46:29;16.83;;;13.15;;
80569;SDS011;69923;50.828;4.400;2023-05-14T12:48:56;15.18;;;11.98;;
80569;SDS011;69923;50.828;4.400;2023-05-14T12:51:23;17.90;;;11.82;;
80569;SDS011;69923;50.828;4.400;2023-05-14T12:53:49;17.52;;;12.13;;
80569;SDS011;69923;50.828;4.400;2023-05-14T12:56:18;16.17;;;11.60;;
80569;SDS011;69923;50.828;4.400;2023-05-14T12:58:45;19.40;;;13.68;;
80569;SDS011;69923;50.828;4.400;2023-05-14T13:01:11;15.43;;;11.15;;
80569;SDS011;69923;50.828;4.400;2023-05-14T13:03:38;13.27;;;10.43;;
80569;SDS011;69923;50.828;4.400;2023-05-14T13:06:05;15.10;;;11.40;;
80569;SDS011;69923;50.828;4.400;2023-05-14T13:08:31;14.82;;;10.80;;
80569;SDS011;69923;50.828;4.400;2023-05-14T13:10:58;17.25;;;12.48;;
80569;SDS011;69923;50.828;4.400;2023-05-14T13:13:24;16.55;;;11.68;;
80569;SDS011;69923;50.828;4.400;2023-05-14T13:15:51;17.02;;;10.65;;
80569;SDS011;69923;50.828;4.400;2023-05-14T13:18:17;15.93;;;10.25;;
80569;SDS011;69923;50.828;4.400;2023-05-14T13:20:44;13.65;;;9.80;;
80569;SDS011;69923;50.828;4.400;2023-05-14T13:23:13;13.18;;;8.82;;
80569;SDS011;69923;50.828;4.400;2023-05-14T13:25:39;14.05;;;10.73;;
80569;SDS011;69923;50.828;4.400;2023-05-14T13:28:06;14.80;;;9.75;;
80569;SDS011;69923;50.828;4.400;2023-05-14T13:30:33;16.55;;;10.90;;
80569;SDS011;69923;50.828;4.400;2023-05-14T13:32:59;16.10;;;10.68;;
80569;SDS011;69923;50.828;4.400;2023-05-14T13:35:26;13.43;;;8.50;;
80569;SDS011;69923;50.828;4.400;2023-05-14T13:37:52;15.75;;;10.50;;
80569;SDS011;69923;50.828;4.400;2023-05-14T13:40:18;14.32;;;10.10;;
80569;SDS011;69923;50.828;4.400;2023-05-14T13:42:44;17.00;;;10.40;;
80569;SDS011;69923;50.828;4.400;2023-05-14T13:45:11;12.35;;;8.80;;
80569;SDS011;69923;50.828;4.400;2023-05-14T13:47:37;14.82;;;10.00;;
80569;SDS011;69923;50.828;4.400;2023-05-14T13:50:03;15.25;;;9.68;;
80569;SDS011;69923;50.828;4.400;2023-05-14T13:52:30;14.65;;;10.55;;
80569;SDS011;69923;50.828;4.400;2023-05-14T13:54:56;14.93;;;10.15;;
80569;SDS011;69923;50.828;4.400;2023-05-14T13:57:22;15.75;;;9.63;;
80569;SDS011;69923;50.828;4.400;2023-05-14T13:59:48;11.02;;;7.95;;
80569;SDS011;69923;50.828;4.400;2023-05-14T14:02:15;17.20;;;9.77;;
80569;SDS011;69923;50.828;4.400;2023-05-14T14:04:41;13.68;;;9.75;;
80569;SDS011;69923;50.828;4.400;2023-05-14T14:07:07;15.27;;;9.05;;
80569;SDS011;69923;50.828;4.400;2023-05-14T14:09:34;12.23;;;8.50;;
80569;SDS011;69923;50.828;4.400;2023-05-14T14:12:03;15.25;;;8.48;;
80569;SDS011;69923;50.828;4.400;2023-05-14T14:14:30;11.35;;;8.40;;
80569;SDS011;69923;50.828;4.400;2023-05-14T14:16:56;12.93;;;8.07;;
80569;SDS011;69923;50.828;4.400;2023-05-14T14:19:22;9.85;;;6.78;;
80569;SDS011;69923;50.828;4.400;2023-05-14T14:21:48;12.95;;;8.13;;
80569;SDS011;69923;50.828;4.400;2023-05-14T14:24:14;12.98;;;8.50;;
80569;SDS011;69923;50.828;4.400;2023-05-14T14:26:40;14.05;;;8.43;;
80569;SDS011;69923;50.828;4.400;2023-05-14T14:29:08;10.63;;;7.88;;
80569;SDS011;69923;50.828;4.400;2023-05-14T14:31:34;9.55;;;7.50;;
80569;SDS011;69923;50.828;4.400;2023-05-14T14:34:01;11.88;;;7.55;;
80569;SDS011;69923;50.828;4.400;2023-05-14T14:36:27;10.35;;;7.78;;
80569;SDS011;69923;50.828;4.400;2023-05-14T14:38:54;12.02;;;8.02;;
80569;SDS011;69923;50.828;4.400;2023-05-14T14:41:21;12.63;;;7.65;;
80569;SDS011;69923;50.828;4.400;2023-05-14T14:43:47;12.30;;;7.50;;
80569;SDS011;69923;50.828;4.400;2023-05-14T14:46:13;12.18;;;7.35;;